EZS14VF EGKK-LSGG
Flight info
| Callsign | EZS14VF |
|---|---|
| Flight time | 1h 17m |
| Altitude | 31000 |
| Route | SFD Y47 BENBO L612 HAWKE UL612 VEULE DCT PEKIM DCT PILUL DCT PIMUP/N0384F270 DCT PIXIS DCT PIBAT DCT LUSAR |
| Aircraft | A320/M-SDE2E3FGHIJ1RWXYZ/LB1 |
Departure
| Time | 2026-05-07 18:59 |
|---|---|
| Airport | London Gatwick Airport (EGKK) |
Arrival
| Time | 2026-05-07 20:16 |
|---|---|
| Airport | Geneva International Airport (LSGG) |
| Time | Latitude | Longitude | Altitude | Speed | Heading |
|---|---|---|---|---|---|
| 2026-05-07 18:09 | 51.15593 | -0.17627 | 205 ft | 0 kts | 347° |
| 2026-05-07 18:45 | 51.15582 | -0.17623 | 217 ft | 4 kts | 345° |
| 2026-05-07 18:46 | 51.15557 | -0.17610 | 214 ft | 4 kts | 333° |
| 2026-05-07 18:46 | 51.15536 | -0.17586 | 216 ft | 4 kts | 298° |
| 2026-05-07 18:46 | 51.15532 | -0.17563 | 210 ft | 0 kts | 257° |
| 2026-05-07 18:51 | 51.15529 | -0.17587 | 216 ft | 4 kts | 257° |
| 2026-05-07 18:51 | 51.15522 | -0.17632 | 208 ft | 5 kts | 257° |
| 2026-05-07 18:51 | 51.15516 | -0.17679 | 214 ft | 1 kts | 258° |
| 2026-05-07 18:52 | 51.15508 | -0.17738 | 205 ft | 10 kts | 258° |
| 2026-05-07 18:52 | 51.15488 | -0.17886 | 214 ft | 16 kts | 258° |
| 2026-05-07 18:52 | 51.15466 | -0.18045 | 205 ft | 14 kts | 258° |
| 2026-05-07 18:52 | 51.15447 | -0.18186 | 207 ft | 12 kts | 258° |
| 2026-05-07 18:53 | 51.15407 | -0.18278 | 206 ft | 10 kts | 191° |
| 2026-05-07 18:53 | 51.15330 | -0.18260 | 205 ft | 13 kts | 168° |
| 2026-05-07 18:53 | 51.15229 | -0.18227 | 211 ft | 16 kts | 174° |
| 2026-05-07 18:53 | 51.15181 | -0.18371 | 205 ft | 18 kts | 258° |
| 2026-05-07 18:54 | 51.15152 | -0.18583 | 208 ft | 21 kts | 257° |
| 2026-05-07 18:54 | 51.15118 | -0.18831 | 208 ft | 25 kts | 258° |
| 2026-05-07 18:54 | 51.15080 | -0.19111 | 208 ft | 26 kts | 257° |
| 2026-05-07 18:54 | 51.15013 | -0.19266 | 206 ft | 15 kts | 182° |
| 2026-05-07 18:55 | 51.14951 | -0.19376 | 212 ft | 16 kts | 257° |
| 2026-05-07 18:55 | 51.14924 | -0.19576 | 209 ft | 20 kts | 257° |
| 2026-05-07 18:55 | 51.14890 | -0.19812 | 210 ft | 24 kts | 258° |
| 2026-05-07 18:55 | 51.14852 | -0.20091 | 212 ft | 28 kts | 257° |
| 2026-05-07 18:56 | 51.14808 | -0.20406 | 209 ft | 30 kts | 257° |
| 2026-05-07 18:56 | 51.14770 | -0.20687 | 204 ft | 26 kts | 258° |
| 2026-05-07 18:56 | 51.14731 | -0.20970 | 207 ft | 27 kts | 258° |
| 2026-05-07 18:56 | 51.14692 | -0.21250 | 208 ft | 24 kts | 257° |
| 2026-05-07 18:57 | 51.14580 | -0.21314 | 211 ft | 20 kts | 160° |
| 2026-05-07 18:57 | 51.14522 | -0.21154 | 206 ft | 11 kts | 82° |
| 2026-05-07 18:57 | 51.14525 | -0.21133 | 215 ft | 0 kts | 76° |
| 2026-05-07 18:58 | 51.14541 | -0.21025 | 215 ft | 38 kts | 77° |
| 2026-05-07 18:58 | 51.14649 | -0.20246 | 209 ft | 103 kts | 77° |
| 2026-05-07 18:58 | 51.14841 | -0.18846 | 207 ft | 153 kts | 77° |
| 2026-05-07 18:58 | 51.15085 | -0.17103 | 686 ft | 160 kts | 79° |
| 2026-05-07 18:59 | 51.15322 | -0.15371 | 1390 ft | 161 kts | 79° |
| 2026-05-07 18:59 | 51.15568 | -0.13546 | 1827 ft | 179 kts | 80° |
| 2026-05-07 18:59 | 51.15836 | -0.11556 | 2156 ft | 201 kts | 79° |
| 2026-05-07 18:59 | 51.16154 | -0.09193 | 2600 ft | 220 kts | 81° |
| 2026-05-07 19:00 | 51.16051 | -0.06783 | 3382 ft | 223 kts | 115° |
| 2026-05-07 19:00 | 51.14979 | -0.04924 | 3913 ft | 244 kts | 150° |
| 2026-05-07 19:00 | 51.13319 | -0.03994 | 4510 ft | 260 kts | 166° |
| 2026-05-07 19:00 | 51.11508 | -0.03503 | 5352 ft | 267 kts | 171° |
| 2026-05-07 19:01 | 51.09656 | -0.03114 | 6239 ft | 271 kts | 171° |
| 2026-05-07 19:01 | 51.07782 | -0.02576 | 6805 ft | 276 kts | 168° |
| 2026-05-07 19:01 | 51.05933 | -0.01872 | 6991 ft | 276 kts | 166° |
| 2026-05-07 19:01 | 51.04082 | -0.01057 | 7057 ft | 276 kts | 164° |
| 2026-05-07 19:02 | 51.02247 | -0.00193 | 7063 ft | 274 kts | 163° |
| 2026-05-07 19:02 | 51.00426 | 0.00687 | 7026 ft | 274 kts | 163° |
| 2026-05-07 19:02 | 50.98607 | 0.01568 | 7037 ft | 273 kts | 163° |
| 2026-05-07 19:02 | 50.96785 | 0.02446 | 7039 ft | 273 kts | 163° |
| 2026-05-07 19:03 | 50.94966 | 0.03314 | 7047 ft | 273 kts | 163° |
| 2026-05-07 19:03 | 50.93144 | 0.04178 | 7056 ft | 273 kts | 163° |
| 2026-05-07 19:03 | 50.91328 | 0.05038 | 7061 ft | 273 kts | 163° |
| 2026-05-07 19:03 | 50.89509 | 0.05898 | 7068 ft | 273 kts | 163° |
| 2026-05-07 19:04 | 50.87690 | 0.06753 | 7065 ft | 273 kts | 163° |
| 2026-05-07 19:04 | 50.85868 | 0.07607 | 7069 ft | 273 kts | 163° |
| 2026-05-07 19:04 | 50.84044 | 0.08461 | 7069 ft | 274 kts | 164° |
| 2026-05-07 19:04 | 50.82207 | 0.09319 | 7401 ft | 277 kts | 164° |
| 2026-05-07 19:05 | 50.80355 | 0.10184 | 8313 ft | 278 kts | 165° |
| 2026-05-07 19:05 | 50.78477 | 0.11061 | 8873 ft | 283 kts | 165° |
| 2026-05-07 19:05 | 50.76563 | 0.11757 | 9062 ft | 281 kts | 176° |
| 2026-05-07 19:05 | 50.74609 | 0.11615 | 9697 ft | 282 kts | 193° |
| 2026-05-07 19:06 | 50.72689 | 0.10921 | 10474 ft | 288 kts | 194° |
| 2026-05-07 19:06 | 50.68491 | 0.09415 | 11242 ft | 324 kts | 194° |
| 2026-05-07 19:06 | 50.66274 | 0.08624 | 11974 ft | 329 kts | 194° |
| 2026-05-07 19:07 | 50.64030 | 0.07819 | 12742 ft | 333 kts | 194° |
| 2026-05-07 19:07 | 50.61759 | 0.07003 | 13493 ft | 337 kts | 194° |
| 2026-05-07 19:07 | 50.59465 | 0.06177 | 14188 ft | 340 kts | 194° |
| 2026-05-07 19:07 | 50.57148 | 0.05342 | 14853 ft | 343 kts | 194° |
| 2026-05-07 19:08 | 50.54810 | 0.04499 | 15517 ft | 346 kts | 194° |
| 2026-05-07 19:08 | 50.52451 | 0.03652 | 16187 ft | 349 kts | 194° |
| 2026-05-07 19:08 | 50.50073 | 0.02800 | 16849 ft | 352 kts | 194° |
| 2026-05-07 19:08 | 50.47638 | 0.02239 | 17491 ft | 357 kts | 183° |
| 2026-05-07 19:09 | 50.45144 | 0.02538 | 18127 ft | 363 kts | 171° |
| 2026-05-07 19:09 | 50.42723 | 0.03752 | 18692 ft | 370 kts | 157° |
| 2026-05-07 19:09 | 50.40491 | 0.05810 | 19243 ft | 375 kts | 148° |
| 2026-05-07 19:09 | 50.38311 | 0.08087 | 19789 ft | 378 kts | 149° |
| 2026-05-07 19:10 | 50.36113 | 0.10369 | 20344 ft | 380 kts | 149° |
| 2026-05-07 19:10 | 50.33896 | 0.12660 | 20885 ft | 383 kts | 149° |
| 2026-05-07 19:10 | 50.31662 | 0.14961 | 21412 ft | 386 kts | 149° |
| 2026-05-07 19:10 | 50.29409 | 0.17278 | 21935 ft | 389 kts | 149° |
| 2026-05-07 19:11 | 50.27140 | 0.19606 | 22463 ft | 392 kts | 149° |
| 2026-05-07 19:11 | 50.24851 | 0.21952 | 22984 ft | 395 kts | 149° |
| 2026-05-07 19:11 | 50.22549 | 0.24310 | 23498 ft | 397 kts | 149° |
| 2026-05-07 19:11 | 50.20230 | 0.26687 | 23941 ft | 400 kts | 149° |
| 2026-05-07 19:12 | 50.17895 | 0.29081 | 24369 ft | 403 kts | 149° |
| 2026-05-07 19:12 | 50.15547 | 0.31492 | 24788 ft | 405 kts | 149° |
| 2026-05-07 19:12 | 50.13184 | 0.33923 | 25206 ft | 408 kts | 149° |
| 2026-05-07 19:12 | 50.10810 | 0.36361 | 25617 ft | 410 kts | 149° |
| 2026-05-07 19:13 | 50.08418 | 0.38812 | 26026 ft | 413 kts | 149° |
| 2026-05-07 19:13 | 50.06014 | 0.41274 | 26435 ft | 415 kts | 149° |
| 2026-05-07 19:13 | 50.03595 | 0.43750 | 26828 ft | 417 kts | 149° |
| 2026-05-07 19:13 | 50.01163 | 0.46233 | 27207 ft | 419 kts | 149° |
| 2026-05-07 19:14 | 49.98718 | 0.48728 | 27583 ft | 422 kts | 149° |
| 2026-05-07 19:14 | 49.96255 | 0.51242 | 27943 ft | 425 kts | 149° |
| 2026-05-07 19:14 | 49.93780 | 0.53765 | 28325 ft | 427 kts | 149° |
| 2026-05-07 19:14 | 49.91290 | 0.56298 | 28715 ft | 429 kts | 149° |
| 2026-05-07 19:15 | 49.88787 | 0.58841 | 29089 ft | 431 kts | 149° |
| 2026-05-07 19:15 | 49.86283 | 0.61422 | 29453 ft | 434 kts | 146° |
| 2026-05-07 19:15 | 49.83966 | 0.64463 | 29797 ft | 439 kts | 139° |
| 2026-05-07 19:15 | 49.81740 | 0.67721 | 30132 ft | 441 kts | 139° |
| 2026-05-07 19:16 | 49.79502 | 0.70984 | 30417 ft | 443 kts | 139° |
| 2026-05-07 19:16 | 49.77252 | 0.74253 | 30687 ft | 445 kts | 139° |
| 2026-05-07 19:16 | 49.74991 | 0.77536 | 30957 ft | 446 kts | 139° |
| 2026-05-07 19:16 | 49.72735 | 0.80807 | 31033 ft | 440 kts | 139° |
| 2026-05-07 19:17 | 49.70545 | 0.83985 | 31047 ft | 425 kts | 139° |
| 2026-05-07 19:17 | 49.68402 | 0.87088 | 31043 ft | 420 kts | 139° |
| 2026-05-07 19:17 | 49.64151 | 0.93226 | 31044 ft | 418 kts | 140° |
| 2026-05-07 19:18 | 49.59898 | 0.99339 | 31044 ft | 418 kts | 140° |
| 2026-05-07 19:18 | 49.55644 | 1.05446 | 31048 ft | 418 kts | 140° |
| 2026-05-07 19:19 | 49.51386 | 1.11539 | 31037 ft | 418 kts | 140° |
| 2026-05-07 19:19 | 49.47132 | 1.17611 | 31048 ft | 417 kts | 140° |
| 2026-05-07 19:20 | 49.42881 | 1.23676 | 31048 ft | 417 kts | 140° |
| 2026-05-07 19:20 | 49.38657 | 1.29687 | 31043 ft | 417 kts | 140° |
| 2026-05-07 19:21 | 49.34406 | 1.35727 | 31030 ft | 417 kts | 140° |
| 2026-05-07 19:21 | 49.30143 | 1.41751 | 31031 ft | 417 kts | 140° |
| 2026-05-07 19:22 | 49.25874 | 1.47766 | 31030 ft | 417 kts | 140° |
| 2026-05-07 19:22 | 49.21601 | 1.53783 | 31015 ft | 418 kts | 140° |
| 2026-05-07 19:23 | 49.17320 | 1.59800 | 31027 ft | 418 kts | 140° |
| 2026-05-07 19:23 | 49.13037 | 1.65805 | 31027 ft | 418 kts | 140° |
| 2026-05-07 19:24 | 49.08753 | 1.71796 | 31028 ft | 418 kts | 140° |
| 2026-05-07 19:24 | 49.05159 | 1.76802 | 31000 ft | 418 kts | 140° |
| 2026-05-07 19:25 | 49.00864 | 1.82770 | 31011 ft | 418 kts | 140° |
| 2026-05-07 19:25 | 48.96566 | 1.88750 | 31026 ft | 419 kts | 140° |
| 2026-05-07 19:26 | 48.92282 | 1.94678 | 31028 ft | 419 kts | 140° |
| 2026-05-07 19:26 | 48.87942 | 2.00680 | 31032 ft | 419 kts | 140° |
| 2026-05-07 19:27 | 48.83623 | 2.06638 | 31040 ft | 420 kts | 141° |
| 2026-05-07 19:27 | 48.79330 | 2.12536 | 31041 ft | 419 kts | 141° |
| 2026-05-07 19:28 | 48.74967 | 2.18511 | 31035 ft | 419 kts | 141° |
| 2026-05-07 19:28 | 48.70634 | 2.24429 | 31037 ft | 420 kts | 141° |
| 2026-05-07 19:29 | 48.69367 | 2.26160 | 31038 ft | 420 kts | 141° |
| 2026-05-07 19:29 | 48.66022 | 2.30724 | 31040 ft | 420 kts | 141° |
| 2026-05-07 19:30 | 48.61685 | 2.36634 | 31033 ft | 420 kts | 141° |
| 2026-05-07 19:30 | 48.57345 | 2.42522 | 31034 ft | 420 kts | 141° |
| 2026-05-07 19:31 | 48.52994 | 2.48415 | 31039 ft | 420 kts | 141° |
| 2026-05-07 19:31 | 48.48638 | 2.54300 | 31028 ft | 420 kts | 141° |
| 2026-05-07 19:32 | 48.44276 | 2.60175 | 31022 ft | 421 kts | 141° |
| 2026-05-07 19:32 | 48.39941 | 2.66007 | 31009 ft | 421 kts | 141° |
| 2026-05-07 19:33 | 48.35571 | 2.71878 | 31010 ft | 421 kts | 141° |
| 2026-05-07 19:33 | 48.31193 | 2.77726 | 31017 ft | 422 kts | 141° |
| 2026-05-07 19:34 | 48.26788 | 2.83559 | 31019 ft | 421 kts | 143° |
| 2026-05-07 19:34 | 48.22007 | 2.89255 | 31022 ft | 420 kts | 146° |
| 2026-05-07 19:35 | 48.17532 | 2.94276 | 31018 ft | 420 kts | 147° |
| 2026-05-07 19:35 | 48.12868 | 2.99545 | 31017 ft | 420 kts | 146° |
| 2026-05-07 19:36 | 48.08148 | 3.04668 | 31016 ft | 417 kts | 154° |
| 2026-05-07 19:36 | 48.02904 | 3.08248 | 31021 ft | 414 kts | 160° |
| 2026-05-07 19:37 | 47.97590 | 3.11598 | 31020 ft | 414 kts | 161° |
| 2026-05-07 19:37 | 47.92272 | 3.14921 | 31017 ft | 414 kts | 161° |
| 2026-05-07 19:38 | 47.86962 | 3.18255 | 31021 ft | 414 kts | 161° |
| 2026-05-07 19:38 | 47.81654 | 3.21579 | 31023 ft | 414 kts | 161° |
| 2026-05-07 19:39 | 47.76347 | 3.24890 | 31023 ft | 413 kts | 161° |
| 2026-05-07 19:39 | 47.71047 | 3.28192 | 31009 ft | 413 kts | 161° |
| 2026-05-07 19:40 | 47.65750 | 3.31488 | 30883 ft | 413 kts | 161° |
| 2026-05-07 19:40 | 47.63098 | 3.33134 | 30633 ft | 413 kts | 161° |
| 2026-05-07 19:40 | 47.60447 | 3.34775 | 30388 ft | 413 kts | 161° |
| 2026-05-07 19:41 | 47.57812 | 3.36401 | 30130 ft | 406 kts | 161° |
| 2026-05-07 19:41 | 47.55233 | 3.37997 | 29857 ft | 397 kts | 161° |
| 2026-05-07 19:41 | 47.52705 | 3.39559 | 29559 ft | 391 kts | 161° |
| 2026-05-07 19:41 | 47.50320 | 3.41474 | 29296 ft | 392 kts | 145° |
| 2026-05-07 19:42 | 47.48398 | 3.44350 | 29117 ft | 397 kts | 129° |
| 2026-05-07 19:42 | 47.46829 | 3.47718 | 28913 ft | 398 kts | 127° |
| 2026-05-07 19:42 | 47.45285 | 3.51103 | 28721 ft | 397 kts | 127° |
| 2026-05-07 19:42 | 47.43751 | 3.54480 | 28525 ft | 396 kts | 127° |
| 2026-05-07 19:43 | 47.42220 | 3.57849 | 28333 ft | 394 kts | 127° |
| 2026-05-07 19:43 | 47.40693 | 3.61200 | 28138 ft | 393 kts | 127° |
| 2026-05-07 19:43 | 47.39167 | 3.64540 | 27948 ft | 392 kts | 127° |
| 2026-05-07 19:43 | 47.37642 | 3.67863 | 27765 ft | 390 kts | 127° |
| 2026-05-07 19:44 | 47.36121 | 3.71173 | 27579 ft | 389 kts | 127° |
| 2026-05-07 19:44 | 47.34605 | 3.74470 | 27391 ft | 388 kts | 127° |
| 2026-05-07 19:44 | 47.33093 | 3.77756 | 27208 ft | 387 kts | 127° |
| 2026-05-07 19:44 | 47.31585 | 3.81027 | 27007 ft | 385 kts | 127° |
| 2026-05-07 19:45 | 47.30087 | 3.84277 | 26835 ft | 383 kts | 127° |
| 2026-05-07 19:45 | 47.28590 | 3.87516 | 26650 ft | 381 kts | 127° |
| 2026-05-07 19:45 | 47.27100 | 3.90737 | 26471 ft | 380 kts | 127° |
| 2026-05-07 19:45 | 47.25633 | 3.93904 | 26293 ft | 379 kts | 127° |
| 2026-05-07 19:46 | 47.24152 | 3.97106 | 26117 ft | 378 kts | 127° |
| 2026-05-07 19:46 | 47.22677 | 4.00295 | 25933 ft | 376 kts | 127° |
| 2026-05-07 19:46 | 47.21207 | 4.03470 | 25758 ft | 375 kts | 127° |
| 2026-05-07 19:46 | 47.19738 | 4.06637 | 25583 ft | 374 kts | 127° |
| 2026-05-07 19:47 | 47.18277 | 4.09777 | 25410 ft | 368 kts | 127° |
| 2026-05-07 19:47 | 47.16852 | 4.12838 | 25277 ft | 357 kts | 127° |
| 2026-05-07 19:47 | 47.15471 | 4.15801 | 25129 ft | 347 kts | 127° |
| 2026-05-07 19:47 | 47.14119 | 4.18697 | 24822 ft | 342 kts | 127° |
| 2026-05-07 19:48 | 47.12779 | 4.21556 | 24468 ft | 339 kts | 127° |
| 2026-05-07 19:48 | 47.11449 | 4.24392 | 24114 ft | 336 kts | 127° |
| 2026-05-07 19:48 | 47.10110 | 4.27246 | 23755 ft | 334 kts | 127° |
| 2026-05-07 19:48 | 47.08814 | 4.30001 | 23391 ft | 331 kts | 127° |
| 2026-05-07 19:49 | 47.07513 | 4.32768 | 23059 ft | 328 kts | 127° |
| 2026-05-07 19:49 | 47.06219 | 4.35519 | 23027 ft | 328 kts | 127° |
| 2026-05-07 19:49 | 47.04920 | 4.38279 | 23037 ft | 329 kts | 127° |
| 2026-05-07 19:49 | 47.03622 | 4.41035 | 22921 ft | 328 kts | 127° |
| 2026-05-07 19:50 | 47.02331 | 4.43781 | 22512 ft | 326 kts | 127° |
| 2026-05-07 19:50 | 47.01045 | 4.46506 | 22136 ft | 324 kts | 127° |
| 2026-05-07 19:50 | 46.99766 | 4.49211 | 21765 ft | 322 kts | 127° |
| 2026-05-07 19:50 | 46.98494 | 4.51903 | 21381 ft | 321 kts | 127° |
| 2026-05-07 19:51 | 46.97223 | 4.54592 | 20992 ft | 321 kts | 127° |
| 2026-05-07 19:51 | 46.95956 | 4.57272 | 20637 ft | 320 kts | 127° |
| 2026-05-07 19:51 | 46.94693 | 4.59941 | 20292 ft | 318 kts | 127° |
| 2026-05-07 19:51 | 46.93437 | 4.62593 | 20044 ft | 316 kts | 127° |
| 2026-05-07 19:52 | 46.92182 | 4.65241 | 20027 ft | 317 kts | 127° |
| 2026-05-07 19:52 | 46.90921 | 4.67892 | 20031 ft | 318 kts | 127° |
| 2026-05-07 19:52 | 46.89656 | 4.70539 | 20033 ft | 318 kts | 127° |
| 2026-05-07 19:52 | 46.88390 | 4.73187 | 20032 ft | 318 kts | 127° |
| 2026-05-07 19:53 | 46.87124 | 4.75831 | 20024 ft | 318 kts | 127° |
| 2026-05-07 19:53 | 46.85861 | 4.78471 | 20026 ft | 316 kts | 127° |
| 2026-05-07 19:53 | 46.84604 | 4.81101 | 20026 ft | 316 kts | 127° |
| 2026-05-07 19:53 | 46.83347 | 4.83724 | 20026 ft | 315 kts | 127° |
| 2026-05-07 19:54 | 46.82089 | 4.86351 | 20025 ft | 315 kts | 127° |
| 2026-05-07 19:54 | 46.80834 | 4.88974 | 20025 ft | 315 kts | 127° |
| 2026-05-07 19:54 | 46.79573 | 4.91605 | 20027 ft | 317 kts | 127° |
| 2026-05-07 19:54 | 46.78307 | 4.94249 | 20027 ft | 318 kts | 127° |
| 2026-05-07 19:55 | 46.77041 | 4.96895 | 20001 ft | 317 kts | 127° |
| 2026-05-07 19:55 | 46.75782 | 4.99523 | 19682 ft | 315 kts | 127° |
| 2026-05-07 19:55 | 46.74526 | 5.02140 | 19361 ft | 314 kts | 127° |
| 2026-05-07 19:55 | 46.73275 | 5.04740 | 19049 ft | 313 kts | 127° |
| 2026-05-07 19:56 | 46.72025 | 5.07331 | 18741 ft | 311 kts | 127° |
| 2026-05-07 19:56 | 46.70778 | 5.09903 | 18439 ft | 310 kts | 127° |
| 2026-05-07 19:56 | 46.69538 | 5.12468 | 18119 ft | 309 kts | 127° |
| 2026-05-07 19:56 | 46.68312 | 5.15029 | 17789 ft | 308 kts | 124° |
| 2026-05-07 19:57 | 46.67277 | 5.17745 | 17475 ft | 307 kts | 116° |
| 2026-05-07 19:57 | 46.66522 | 5.20643 | 17171 ft | 306 kts | 107° |
| 2026-05-07 19:57 | 46.66031 | 5.23654 | 16865 ft | 305 kts | 103° |
| 2026-05-07 19:57 | 46.65582 | 5.26661 | 16569 ft | 303 kts | 103° |
| 2026-05-07 19:58 | 46.65130 | 5.29655 | 16245 ft | 303 kts | 103° |
| 2026-05-07 19:58 | 46.64677 | 5.32644 | 15953 ft | 302 kts | 103° |
| 2026-05-07 19:58 | 46.64226 | 5.35616 | 15674 ft | 300 kts | 103° |
| 2026-05-07 19:58 | 46.63773 | 5.38575 | 15410 ft | 299 kts | 103° |
| 2026-05-07 19:59 | 46.63321 | 5.41515 | 15145 ft | 297 kts | 103° |
| 2026-05-07 19:59 | 46.62873 | 5.44440 | 14876 ft | 295 kts | 103° |
| 2026-05-07 19:59 | 46.62428 | 5.47346 | 14614 ft | 294 kts | 103° |
| 2026-05-07 19:59 | 46.61981 | 5.50244 | 14354 ft | 292 kts | 103° |
| 2026-05-07 20:00 | 46.61535 | 5.53119 | 14109 ft | 291 kts | 104° |
| 2026-05-07 20:00 | 46.61089 | 5.55980 | 13853 ft | 289 kts | 104° |
| 2026-05-07 20:00 | 46.60644 | 5.58829 | 13565 ft | 288 kts | 104° |
| 2026-05-07 20:00 | 46.60202 | 5.61662 | 13273 ft | 287 kts | 104° |
| 2026-05-07 20:01 | 46.59763 | 5.64480 | 12978 ft | 285 kts | 104° |
| 2026-05-07 20:01 | 46.59322 | 5.67283 | 12679 ft | 284 kts | 105° |
| 2026-05-07 20:01 | 46.58565 | 5.69894 | 12356 ft | 279 kts | 128° |
| 2026-05-07 20:01 | 46.57216 | 5.71842 | 12087 ft | 272 kts | 150° |
| 2026-05-07 20:02 | 46.55505 | 5.72962 | 12034 ft | 270 kts | 162° |
| 2026-05-07 20:02 | 46.53740 | 5.73903 | 12032 ft | 271 kts | 162° |
| 2026-05-07 20:02 | 46.51971 | 5.74845 | 12033 ft | 271 kts | 162° |
| 2026-05-07 20:02 | 46.50199 | 5.75789 | 12034 ft | 271 kts | 162° |
| 2026-05-07 20:03 | 46.48430 | 5.76733 | 12013 ft | 270 kts | 162° |
| 2026-05-07 20:03 | 46.46671 | 5.77673 | 11743 ft | 268 kts | 162° |
| 2026-05-07 20:03 | 46.44923 | 5.78605 | 11450 ft | 267 kts | 162° |
| 2026-05-07 20:03 | 46.43187 | 5.79528 | 11150 ft | 265 kts | 162° |
| 2026-05-07 20:04 | 46.41463 | 5.80445 | 10866 ft | 263 kts | 163° |
| 2026-05-07 20:04 | 46.39755 | 5.81354 | 10598 ft | 260 kts | 163° |
| 2026-05-07 20:04 | 46.38059 | 5.82242 | 10330 ft | 258 kts | 165° |
| 2026-05-07 20:04 | 46.36327 | 5.82629 | 10032 ft | 250 kts | 187° |
| 2026-05-07 20:05 | 46.34617 | 5.82269 | 9702 ft | 248 kts | 192° |
| 2026-05-07 20:05 | 46.32928 | 5.81799 | 9343 ft | 246 kts | 193° |
| 2026-05-07 20:05 | 46.31249 | 5.81307 | 8973 ft | 246 kts | 193° |
| 2026-05-07 20:05 | 46.29574 | 5.80807 | 8600 ft | 245 kts | 193° |
| 2026-05-07 20:06 | 46.27906 | 5.80297 | 8208 ft | 245 kts | 193° |
| 2026-05-07 20:06 | 46.26262 | 5.79786 | 8011 ft | 237 kts | 193° |
| 2026-05-07 20:06 | 46.25207 | 5.79457 | 7926 ft | 231 kts | 193° |
| 2026-05-07 20:06 | 46.23665 | 5.78976 | 7723 ft | 224 kts | 193° |
| 2026-05-07 20:07 | 46.22150 | 5.78503 | 7402 ft | 222 kts | 193° |
| 2026-05-07 20:07 | 46.20638 | 5.78019 | 7092 ft | 223 kts | 193° |
| 2026-05-07 20:07 | 46.19133 | 5.77528 | 7002 ft | 221 kts | 193° |
| 2026-05-07 20:07 | 46.17676 | 5.77049 | 6998 ft | 209 kts | 193° |
| 2026-05-07 20:08 | 46.16304 | 5.76596 | 7018 ft | 196 kts | 193° |
| 2026-05-07 20:08 | 46.14990 | 5.76160 | 7013 ft | 193 kts | 193° |
| 2026-05-07 20:08 | 46.13696 | 5.75736 | 6850 ft | 189 kts | 193° |
| 2026-05-07 20:08 | 46.12413 | 5.75313 | 6515 ft | 190 kts | 193° |
| 2026-05-07 20:09 | 46.11117 | 5.74980 | 6194 ft | 189 kts | 177° |
| 2026-05-07 20:09 | 46.09922 | 5.75649 | 6017 ft | 184 kts | 142° |
| 2026-05-07 20:09 | 46.09029 | 5.76895 | 5994 ft | 174 kts | 134° |
| 2026-05-07 20:10 | 46.07541 | 5.79556 | 5999 ft | 172 kts | 108° |
| 2026-05-07 20:10 | 46.07572 | 5.81271 | 5989 ft | 177 kts | 74° |
| 2026-05-07 20:10 | 46.08047 | 5.82918 | 5835 ft | 178 kts | 70° |
| 2026-05-07 20:10 | 46.08482 | 5.84574 | 5665 ft | 176 kts | 72° |
| 2026-05-07 20:11 | 46.08886 | 5.86223 | 5465 ft | 174 kts | 73° |
| 2026-05-07 20:11 | 46.09273 | 5.87863 | 5306 ft | 172 kts | 73° |
| 2026-05-07 20:11 | 46.09652 | 5.89489 | 5127 ft | 170 kts | 73° |
| 2026-05-07 20:11 | 46.10181 | 5.90994 | 4953 ft | 171 kts | 49° |
| 2026-05-07 20:12 | 46.11016 | 5.92224 | 4729 ft | 171 kts | 47° |
| 2026-05-07 20:12 | 46.11857 | 5.93437 | 4493 ft | 171 kts | 46° |
| 2026-05-07 20:12 | 46.12688 | 5.94644 | 4265 ft | 169 kts | 47° |
| 2026-05-07 20:12 | 46.13511 | 5.95842 | 4040 ft | 168 kts | 47° |
| 2026-05-07 20:13 | 46.14329 | 5.97034 | 3823 ft | 166 kts | 46° |
| 2026-05-07 20:13 | 46.15140 | 5.98217 | 3592 ft | 165 kts | 45° |
| 2026-05-07 20:13 | 46.15933 | 5.99374 | 3373 ft | 158 kts | 45° |
| 2026-05-07 20:13 | 46.16672 | 6.00453 | 3188 ft | 144 kts | 45° |
| 2026-05-07 20:14 | 46.17354 | 6.01451 | 2984 ft | 136 kts | 45° |
| 2026-05-07 20:14 | 46.18016 | 6.02419 | 2807 ft | 136 kts | 45° |
| 2026-05-07 20:14 | 46.18677 | 6.03391 | 2602 ft | 136 kts | 45° |
| 2026-05-07 20:14 | 46.19343 | 6.04366 | 2426 ft | 138 kts | 45° |
| 2026-05-07 20:15 | 46.20015 | 6.05347 | 2227 ft | 138 kts | 45° |
| 2026-05-07 20:15 | 46.20691 | 6.06334 | 2014 ft | 138 kts | 44° |
| 2026-05-07 20:15 | 46.21370 | 6.07323 | 1833 ft | 139 kts | 44° |
| 2026-05-07 20:15 | 46.22044 | 6.08315 | 1673 ft | 138 kts | 45° |
| 2026-05-07 20:16 | 46.22718 | 6.09300 | 1470 ft | 137 kts | 45° |
| 2026-05-07 20:16 | 46.23341 | 6.10212 | 1401 ft | 103 kts | 45° |
| 2026-05-07 20:16 | 46.23648 | 6.10665 | 1380 ft | 39 kts | 45° |
| 2026-05-07 20:16 | 46.23828 | 6.10927 | 1379 ft | 31 kts | 46° |
| 2026-05-07 20:17 | 46.23808 | 6.11076 | 1379 ft | 18 kts | 168° |
| 2026-05-07 20:17 | 46.23755 | 6.11089 | 1383 ft | 0 kts | 172° |
| 2026-05-07 20:18 | 46.23753 | 6.11089 | 1383 ft | 1 kts | 172° |
| 2026-05-07 20:18 | 46.23737 | 6.11092 | 1380 ft | 3 kts | 172° |
| 2026-05-07 20:18 | 46.23715 | 6.11091 | 1385 ft | 3 kts | 188° |
| 2026-05-07 20:18 | 46.23696 | 6.11080 | 1383 ft | 5 kts | 208° |
| 2026-05-07 20:19 | 46.23650 | 6.11096 | 1397 ft | 11 kts | 140° |
| 2026-05-07 20:19 | 46.23582 | 6.11163 | 1397 ft | 12 kts | 185° |
| 2026-05-07 20:19 | 46.23534 | 6.11153 | 1401 ft | 5 kts | 139° |
| 2026-05-07 20:19 | 46.23514 | 6.11179 | 1402 ft | 3 kts | 135° |
| 2026-05-07 20:20 | 46.23503 | 6.11195 | 1398 ft | 2 kts | 135° |
| 2026-05-07 20:20 | 46.23501 | 6.11198 | 1398 ft | 0 kts | 135° |
| 2026-05-07 20:23 | 46.23503 | 6.11196 | 1398 ft | 0 kts | 136° |